createdAt,value
2023-01-21T00:00:15.441Z,18.00
2023-01-21T00:01:15.104Z,15.00
2023-01-21T00:02:15.130Z,16.20
2023-01-21T00:03:15.120Z,21.80
2023-01-21T00:04:15.080Z,18.30
2023-01-21T00:05:15.038Z,18.00
2023-01-21T00:06:15.127Z,20.20
2023-01-21T00:07:15.034Z,22.50
2023-01-21T00:08:15.032Z,18.30
2023-01-21T00:09:14.992Z,18.70
2023-01-21T00:10:15.325Z,17.00
2023-01-21T00:11:14.997Z,15.30
2023-01-21T00:12:14.983Z,18.90
2023-01-21T00:13:14.970Z,12.50
2023-01-21T00:14:14.945Z,14.30
2023-01-21T00:15:14.942Z,11.20
2023-01-21T00:16:15.001Z,14.80
2023-01-21T00:17:14.905Z,14.70
2023-01-21T00:18:14.940Z,15.00
2023-01-21T00:19:14.898Z,16.10
2023-01-21T00:20:15.467Z,15.70
2023-01-21T00:21:14.877Z,16.20
2023-01-21T00:22:14.866Z,15.90
2023-01-21T00:23:14.859Z,14.60
2023-01-21T00:24:14.856Z,16.70
2023-01-21T00:25:14.822Z,15.30
2023-01-21T00:26:14.802Z,14.20
2023-01-21T00:27:14.801Z,18.70
2023-01-21T00:28:14.816Z,16.60
2023-01-21T00:29:14.806Z,15.20
2023-01-21T00:30:15.016Z,15.10
2023-01-21T00:31:14.840Z,16.90
2023-01-21T00:32:14.741Z,17.40
2023-01-21T00:33:14.736Z,14.80
2023-01-21T00:34:14.742Z,17.30
2023-01-21T00:35:14.734Z,14.00
2023-01-21T00:36:14.708Z,12.80
2023-01-21T00:37:14.704Z,13.60
2023-01-21T00:38:14.671Z,18.20
2023-01-21T00:39:14.688Z,16.10
2023-01-21T00:40:15.001Z,16.60
2023-01-21T00:41:14.656Z,15.00
2023-01-21T00:42:14.648Z,16.40
2023-01-21T00:43:14.624Z,15.50
2023-01-21T00:44:14.632Z,15.40
2023-01-21T00:45:14.662Z,17.40
2023-01-21T00:46:14.627Z,17.60
2023-01-21T00:47:14.600Z,15.00
2023-01-21T00:48:14.569Z,13.50
2023-01-21T00:49:14.555Z,15.60
2023-01-21T00:50:14.823Z,14.40
2023-01-21T00:51:14.610Z,17.50
2023-01-21T00:52:14.517Z,16.20
2023-01-21T00:53:14.515Z,16.10
2023-01-21T00:54:14.506Z,14.60
2023-01-21T00:55:14.487Z,16.00
2023-01-21T00:56:14.521Z,18.30
2023-01-21T00:57:14.522Z,22.70
2023-01-21T00:58:14.453Z,14.70
2023-01-21T00:59:14.463Z,17.10
2023-01-21T01:00:14.886Z,16.60
2023-01-21T01:01:14.534Z,15.50
2023-01-21T01:02:14.415Z,15.00
2023-01-21T01:03:14.414Z,15.60
2023-01-21T01:04:14.384Z,16.50
2023-01-21T01:05:14.412Z,16.90
2023-01-21T01:06:14.371Z,15.70
2023-01-21T01:07:14.381Z,16.40
2023-01-21T01:08:14.355Z,15.80
2023-01-21T01:09:14.337Z,16.90
2023-01-21T01:10:14.589Z,15.00
2023-01-21T01:11:14.321Z,16.60
2023-01-21T01:12:14.301Z,16.70
2023-01-21T01:13:14.299Z,14.10
2023-01-21T01:14:14.275Z,11.80
2023-01-21T01:15:14.309Z,17.90
2023-01-21T01:16:14.362Z,13.90
2023-01-21T01:17:14.284Z,18.20
2023-01-21T01:18:14.244Z,12.90
2023-01-21T01:19:14.230Z,14.50
2023-01-21T01:20:14.425Z,16.20
2023-01-21T01:21:14.214Z,15.60
2023-01-21T01:22:14.209Z,15.10
2023-01-21T01:23:14.202Z,15.90
2023-01-21T01:24:14.167Z,14.80
2023-01-21T01:25:14.186Z,14.40
2023-01-21T01:26:14.154Z,15.50
2023-01-21T01:27:14.139Z,14.90
2023-01-21T01:28:14.147Z,20.70
2023-01-21T01:29:14.142Z,16.20
2023-01-21T01:30:14.528Z,20.70
2023-01-21T01:31:14.212Z,23.40
2023-01-21T01:32:14.077Z,16.30
2023-01-21T01:33:14.071Z,13.20
2023-01-21T01:34:14.073Z,17.50
2023-01-21T01:35:14.053Z,17.00
2023-01-21T01:36:14.068Z,19.90
2023-01-21T01:37:14.039Z,18.80
2023-01-21T01:38:14.017Z,17.70
2023-01-21T01:39:14.040Z,18.20
2023-01-21T01:40:14.031Z,17.70
2023-01-21T01:41:13.984Z,17.90
2023-01-21T01:42:13.987Z,16.50
2023-01-21T01:43:13.959Z,15.50
2023-01-21T01:44:13.951Z,22.70
2023-01-21T01:45:13.941Z,17.50
2023-01-21T01:46:14.000Z,18.20
2023-01-21T01:47:13.929Z,18.30
2023-01-21T01:48:13.928Z,22.30
2023-01-21T01:49:13.951Z,18.20
2023-01-21T01:50:13.880Z,22.60
2023-01-21T01:51:13.930Z,17.00
2023-01-21T01:52:13.850Z,15.30
2023-01-21T01:53:13.855Z,19.80
2023-01-21T01:54:13.857Z,16.20
2023-01-21T01:55:13.847Z,16.70
2023-01-21T01:56:13.815Z,14.30
2023-01-21T01:57:13.829Z,20.80
2023-01-21T01:58:13.808Z,21.70
2023-01-21T01:59:13.817Z,21.40
2023-01-21T02:00:13.898Z,17.40
2023-01-21T02:01:13.760Z,23.70
2023-01-21T02:02:13.772Z,19.60
2023-01-21T02:03:13.753Z,21.30
2023-01-21T02:04:13.730Z,18.70
2023-01-21T02:05:13.771Z,16.80
2023-01-21T02:06:13.718Z,22.70
2023-01-21T02:07:13.732Z,20.20
2023-01-21T02:08:13.680Z,25.40
2023-01-21T02:09:13.680Z,25.80
2023-01-21T02:10:13.699Z,27.20
2023-01-21T02:11:13.695Z,22.10
2023-01-21T02:12:13.650Z,19.10
2023-01-21T02:13:13.636Z,20.60
2023-01-21T02:14:13.617Z,16.30
2023-01-21T02:15:13.610Z,15.60
2023-01-21T02:16:13.717Z,18.00
2023-01-21T02:17:13.594Z,18.20
2023-01-21T02:18:13.566Z,14.70
2023-01-21T02:19:13.565Z,16.30
2023-01-21T02:20:13.546Z,15.70
2023-01-21T02:21:13.544Z,19.00
2023-01-21T02:22:13.551Z,13.90
2023-01-21T02:23:13.519Z,17.00
2023-01-21T02:24:13.508Z,18.90
2023-01-21T02:25:13.514Z,17.40
2023-01-21T02:26:13.495Z,16.40
2023-01-21T02:27:13.498Z,20.80
2023-01-21T02:28:13.634Z,15.40
2023-01-21T02:29:13.461Z,12.80
2023-01-21T02:30:13.457Z,18.20
2023-01-21T02:31:13.579Z,16.60
2023-01-21T02:32:13.436Z,19.20
2023-01-21T02:33:13.409Z,21.00
2023-01-21T02:34:13.400Z,19.70
2023-01-21T02:35:13.417Z,18.70
2023-01-21T02:36:13.372Z,20.20
2023-01-21T02:37:13.383Z,26.10
2023-01-21T02:38:13.347Z,24.80
2023-01-21T02:39:13.348Z,34.50
2023-01-21T02:40:13.382Z,16.40
2023-01-21T02:41:13.331Z,17.50
2023-01-21T02:42:13.304Z,23.60
2023-01-21T02:43:13.346Z,14.90
2023-01-21T02:44:13.291Z,17.60
2023-01-21T02:45:13.320Z,18.90
2023-01-21T02:46:13.335Z,17.10
2023-01-21T02:47:13.277Z,19.30
2023-01-21T02:48:13.248Z,24.20
2023-01-21T02:49:13.241Z,24.30
2023-01-21T02:50:13.253Z,21.90
2023-01-21T02:51:13.269Z,24.10
2023-01-21T02:52:13.196Z,18.70
2023-01-21T02:53:13.189Z,20.00
2023-01-21T02:54:13.177Z,17.80
2023-01-21T02:55:13.188Z,29.00
2023-01-21T02:56:13.181Z,26.60
2023-01-21T02:57:13.153Z,29.10
2023-01-21T02:58:13.123Z,40.20
2023-01-21T02:59:13.144Z,36.80
2023-01-21T03:00:13.107Z,37.20
2023-01-21T03:01:13.219Z,38.80
2023-01-21T03:02:13.102Z,28.00
2023-01-21T03:03:13.096Z,46.60
2023-01-21T03:04:13.064Z,44.60
2023-01-21T03:05:13.072Z,41.80
2023-01-21T03:06:13.052Z,38.60
2023-01-21T03:07:13.055Z,22.00
2023-01-21T03:08:13.049Z,21.70
2023-01-21T03:09:13.025Z,21.00
2023-01-21T03:10:13.004Z,25.90
2023-01-21T03:11:12.994Z,23.40
2023-01-21T03:12:13.006Z,28.20
2023-01-21T03:13:13.003Z,34.20
2023-01-21T03:14:12.970Z,30.70
2023-01-21T03:15:12.962Z,24.30
2023-01-21T03:16:12.981Z,21.10
2023-01-21T03:17:12.951Z,17.50
2023-01-21T03:18:12.916Z,48.20
2023-01-21T03:19:12.931Z,28.20
2023-01-21T03:20:12.890Z,34.30
2023-01-21T03:21:12.882Z,54.70
2023-01-21T03:22:12.885Z,38.90
2023-01-21T03:23:12.879Z,40.60
2023-01-21T03:24:12.847Z,50.90
2023-01-21T03:25:12.839Z,42.40
2023-01-21T03:26:12.819Z,32.60
2023-01-21T03:27:12.810Z,33.50
2023-01-21T03:28:12.828Z,49.20
2023-01-21T03:29:12.835Z,40.00
2023-01-21T03:30:12.805Z,35.30
2023-01-21T03:31:12.890Z,31.80
2023-01-21T03:32:12.753Z,43.40
2023-01-21T03:33:12.793Z,42.00
2023-01-21T03:34:12.754Z,30.00
2023-01-21T03:35:12.739Z,54.60
2023-01-21T03:36:12.709Z,47.80
2023-01-21T03:37:12.710Z,43.70
2023-01-21T03:38:12.708Z,59.20
2023-01-21T03:39:12.704Z,39.10
2023-01-21T03:40:12.677Z,43.80
2023-01-21T03:41:12.660Z,40.50
2023-01-21T03:42:12.648Z,36.50
2023-01-21T03:43:12.639Z,46.80
2023-01-21T03:44:12.695Z,38.50
2023-01-21T03:45:12.634Z,33.50
2023-01-21T03:46:12.604Z,44.10
2023-01-21T03:47:12.614Z,40.70
2023-01-21T03:48:12.582Z,34.70
2023-01-21T03:49:12.595Z,21.40
2023-01-21T03:50:12.577Z,33.10
2023-01-21T03:51:12.579Z,29.00
2023-01-21T03:52:12.532Z,21.90
2023-01-21T03:53:12.535Z,31.50
2023-01-21T03:54:12.516Z,22.10
2023-01-21T03:55:12.528Z,24.90
2023-01-21T03:56:12.487Z,22.00
2023-01-21T03:57:12.503Z,27.00
2023-01-21T03:58:12.467Z,58.70
2023-01-21T03:59:12.472Z,24.40
2023-01-21T04:00:12.470Z,31.00
2023-01-21T04:01:12.528Z,21.20
2023-01-21T04:02:12.484Z,19.80
2023-01-21T04:03:12.435Z,27.40
2023-01-21T04:04:12.422Z,21.10
2023-01-21T04:05:12.410Z,15.70
2023-01-21T04:06:12.387Z,15.40
2023-01-21T04:07:12.396Z,20.10
2023-01-21T04:08:12.355Z,29.00
2023-01-21T04:09:12.370Z,17.10
2023-01-21T04:10:12.350Z,24.30
2023-01-21T04:11:12.337Z,29.70
2023-01-21T04:12:12.317Z,19.60
2023-01-21T04:13:12.307Z,35.30
2023-01-21T04:14:12.312Z,24.20
2023-01-21T04:15:12.296Z,53.40
2023-01-21T04:16:12.321Z,43.90
2023-01-21T04:17:12.276Z,41.70
2023-01-21T04:18:12.250Z,26.60
2023-01-21T04:19:12.277Z,26.00
2023-01-21T04:20:12.223Z,23.30
2023-01-21T04:21:12.221Z,42.20
2023-01-21T04:22:12.216Z,54.00
2023-01-21T04:23:12.196Z,25.70
2023-01-21T04:24:12.214Z,29.30
2023-01-21T04:25:12.175Z,26.20
2023-01-21T04:26:12.184Z,24.40
2023-01-21T04:27:12.163Z,19.90
2023-01-21T04:28:12.167Z,24.40
2023-01-21T04:29:12.155Z,25.60
2023-01-21T04:30:12.109Z,25.20
2023-01-21T04:31:12.138Z,26.50
2023-01-21T04:32:12.100Z,26.30
2023-01-21T04:33:12.090Z,34.70
2023-01-21T04:34:12.077Z,18.50
2023-01-21T04:35:12.106Z,28.70
2023-01-21T04:36:12.051Z,41.10
2023-01-21T04:37:12.048Z,52.60
2023-01-21T04:38:12.036Z,42.00
2023-01-21T04:39:12.021Z,30.90
2023-01-21T04:40:12.030Z,49.30
2023-01-21T04:41:12.007Z,37.10
2023-01-21T04:42:11.992Z,43.00
2023-01-21T04:43:11.975Z,40.10
2023-01-21T04:44:11.993Z,27.90
2023-01-21T04:45:11.975Z,26.10
2023-01-21T04:46:12.053Z,30.00
2023-01-21T04:47:11.931Z,14.90
2023-01-21T04:48:11.927Z,12.90
2023-01-21T04:49:11.919Z,13.70
2023-01-21T04:50:11.926Z,14.40
2023-01-21T04:51:12.039Z,15.70
2023-01-21T04:52:11.884Z,15.10
2023-01-21T04:53:11.887Z,12.60
2023-01-21T04:54:11.879Z,11.70
2023-01-21T04:55:11.849Z,12.80
2023-01-21T04:56:11.831Z,12.20
2023-01-21T04:57:11.835Z,18.40
2023-01-21T04:58:11.847Z,13.30
2023-01-21T04:59:11.807Z,24.90
2023-01-21T05:00:11.799Z,21.30
2023-01-21T05:01:11.843Z,16.10
2023-01-21T05:02:11.801Z,14.40
2023-01-21T05:03:11.757Z,17.60
2023-01-21T05:04:11.773Z,14.60
2023-01-21T05:05:11.733Z,17.10
2023-01-21T05:06:11.750Z,9.70
2023-01-21T05:07:11.723Z,12.70
2023-01-21T05:08:11.702Z,17.60
2023-01-21T05:09:11.712Z,11.30
2023-01-21T05:10:11.697Z,14.50
2023-01-21T05:11:11.688Z,16.70
2023-01-21T05:12:11.659Z,16.30
2023-01-21T05:13:11.810Z,21.10
2023-01-21T05:14:11.677Z,28.20
2023-01-21T05:15:11.620Z,27.60
2023-01-21T05:16:11.612Z,20.10
2023-01-21T05:17:11.603Z,37.30
2023-01-21T05:18:11.596Z,19.60
2023-01-21T05:19:11.757Z,20.90
2023-01-21T05:20:11.608Z,27.30
2023-01-21T05:21:11.584Z,34.70
2023-01-21T05:22:11.552Z,17.10
2023-01-21T05:23:11.553Z,27.40
2023-01-21T05:24:11.559Z,25.80
2023-01-21T05:25:11.525Z,22.80
2023-01-21T05:26:11.516Z,18.10
2023-01-21T05:27:11.502Z,21.80
2023-01-21T05:28:11.491Z,34.10
2023-01-21T05:29:11.489Z,34.40
2023-01-21T05:30:11.463Z,30.70
2023-01-21T05:31:11.535Z,25.40
2023-01-21T05:32:11.443Z,26.80
2023-01-21T05:33:11.444Z,25.50
2023-01-21T05:34:11.460Z,44.30
2023-01-21T05:35:11.444Z,34.60
2023-01-21T05:36:11.394Z,38.00
2023-01-21T05:37:11.383Z,21.60
2023-01-21T05:38:11.393Z,31.80
2023-01-21T05:39:11.425Z,47.30
2023-01-21T05:40:11.381Z,51.10
2023-01-21T05:41:11.334Z,37.90
2023-01-21T05:42:11.349Z,68.80
2023-01-21T05:43:11.315Z,36.20
2023-01-21T05:44:11.308Z,39.20
2023-01-21T05:45:11.319Z,34.70
2023-01-21T05:46:11.392Z,38.20
2023-01-21T05:47:11.268Z,21.60
2023-01-21T05:48:11.273Z,31.90
2023-01-21T05:49:11.248Z,23.40
2023-01-21T05:50:11.246Z,13.80
2023-01-21T05:51:11.297Z,29.60
2023-01-21T05:52:11.251Z,25.70
2023-01-21T05:53:11.207Z,12.60
2023-01-21T05:54:11.196Z,16.00
2023-01-21T05:55:11.228Z,11.50
2023-01-21T05:56:11.225Z,13.10
2023-01-21T05:57:11.201Z,9.70
2023-01-21T05:58:11.153Z,13.70
2023-01-21T05:59:11.145Z,12.30
2023-01-21T06:00:11.131Z,15.50
2023-01-21T06:01:11.116Z,14.00
2023-01-21T06:02:11.201Z,12.80
2023-01-21T06:03:11.136Z,15.50
2023-01-21T06:04:11.098Z,12.10
2023-01-21T06:05:11.117Z,8.60
2023-01-21T06:06:11.073Z,11.70
2023-01-21T06:07:11.063Z,11.90
2023-01-21T06:08:11.054Z,18.10
2023-01-21T06:09:11.059Z,14.90
2023-01-21T06:10:11.046Z,10.80
2023-01-21T06:11:11.047Z,9.30
2023-01-21T06:12:11.001Z,8.10
2023-01-21T06:13:10.985Z,9.50
2023-01-21T06:14:10.995Z,14.50
2023-01-21T06:15:10.984Z,12.20
2023-01-21T06:16:11.027Z,12.00
2023-01-21T06:17:10.939Z,14.30
2023-01-21T06:18:10.939Z,13.20
2023-01-21T06:19:10.961Z,11.50
2023-01-21T06:20:10.917Z,12.70
2023-01-21T06:21:10.904Z,9.60
2023-01-21T06:22:10.898Z,10.40
2023-01-21T06:23:10.898Z,28.30
2023-01-21T06:24:10.870Z,21.90
2023-01-21T06:25:10.866Z,13.70
2023-01-21T06:26:10.869Z,13.30
2023-01-21T06:27:10.853Z,19.70
2023-01-21T06:28:10.844Z,12.70
2023-01-21T06:29:10.811Z,13.30
2023-01-21T06:30:10.824Z,17.70
2023-01-21T06:31:10.994Z,17.40
2023-01-21T06:32:10.886Z,20.80
2023-01-21T06:33:10.769Z,18.20
2023-01-21T06:34:10.788Z,20.30
2023-01-21T06:35:10.760Z,14.70
2023-01-21T06:36:10.750Z,14.20
2023-01-21T06:37:10.726Z,10.70
2023-01-21T06:38:10.714Z,10.20
2023-01-21T06:39:10.749Z,8.60
2023-01-21T06:40:10.697Z,7.30
2023-01-21T06:41:10.681Z,6.40
2023-01-21T06:42:10.669Z,8.10
2023-01-21T06:43:10.699Z,10.60
2023-01-21T06:44:10.658Z,9.40
2023-01-21T06:45:10.672Z,11.20
2023-01-21T06:46:10.691Z,9.10
2023-01-21T06:47:10.619Z,10.30
2023-01-21T06:48:10.611Z,11.10
2023-01-21T06:49:10.589Z,8.60
2023-01-21T06:50:10.620Z,10.70
2023-01-21T06:51:10.688Z,10.30
2023-01-21T06:52:10.582Z,11.60
2023-01-21T06:53:10.560Z,10.20
2023-01-21T06:54:10.542Z,13.00
2023-01-21T06:55:10.572Z,9.30
2023-01-21T06:56:10.539Z,9.90
2023-01-21T06:57:10.509Z,10.20
2023-01-21T06:58:10.499Z,9.20
2023-01-21T06:59:10.500Z,11.10
2023-01-21T07:00:10.525Z,9.70
2023-01-21T07:01:10.505Z,11.30
2023-01-21T07:02:10.461Z,11.10
2023-01-21T07:03:10.476Z,10.30
2023-01-21T07:04:10.433Z,10.60
2023-01-21T07:05:10.419Z,9.20
2023-01-21T07:06:10.474Z,10.20
2023-01-21T07:07:10.472Z,9.00
2023-01-21T07:08:10.417Z,9.80
2023-01-21T07:09:10.365Z,10.50
2023-01-21T07:10:10.378Z,8.10
2023-01-21T07:11:10.362Z,7.90
2023-01-21T07:12:10.350Z,8.70
2023-01-21T07:13:10.356Z,9.20
2023-01-21T07:14:10.362Z,9.00
2023-01-21T07:15:10.327Z,9.50
2023-01-21T07:16:10.352Z,9.10
2023-01-21T07:17:10.289Z,8.70
2023-01-21T07:18:10.308Z,8.20
2023-01-21T07:19:10.273Z,15.70
2023-01-21T07:20:10.257Z,9.00
2023-01-21T07:21:10.255Z,11.70
2023-01-21T07:22:10.233Z,7.70
2023-01-21T07:23:10.253Z,8.00
2023-01-21T07:24:10.241Z,10.20
2023-01-21T07:25:10.241Z,8.60
2023-01-21T07:26:10.193Z,8.80
2023-01-21T07:27:10.174Z,9.60
2023-01-21T07:28:10.182Z,7.40
2023-01-21T07:29:10.154Z,8.70
2023-01-21T07:30:10.174Z,8.10
2023-01-21T07:31:10.223Z,14.70
2023-01-21T07:32:10.127Z,8.00
2023-01-21T07:33:10.112Z,8.80
2023-01-21T07:34:10.104Z,9.40
2023-01-21T07:35:10.099Z,11.70
2023-01-21T07:36:10.119Z,9.00
2023-01-21T07:37:10.060Z,6.90
2023-01-21T07:38:10.059Z,9.60
2023-01-21T07:39:10.059Z,8.00
2023-01-21T07:40:10.053Z,8.80
2023-01-21T07:41:10.048Z,13.50
2023-01-21T07:42:10.025Z,7.70
2023-01-21T07:43:10.006Z,8.40
2023-01-21T07:44:10.008Z,9.00
2023-01-21T07:45:09.976Z,6.50
2023-01-21T07:46:10.026Z,8.00
2023-01-21T07:47:09.973Z,5.90
2023-01-21T07:48:09.979Z,8.70
2023-01-21T07:49:09.931Z,8.50
2023-01-21T07:50:09.991Z,7.30
2023-01-21T07:51:09.975Z,8.50
2023-01-21T07:52:09.905Z,9.20
2023-01-21T07:53:09.915Z,7.00
2023-01-21T07:54:09.888Z,8.80
2023-01-21T07:55:12.272Z,6.60
2023-01-21T07:56:09.904Z,8.20
2023-01-21T07:57:09.877Z,6.70
2023-01-21T07:58:09.885Z,7.10
2023-01-21T07:59:09.849Z,6.70
2023-01-21T08:00:09.822Z,6.70
2023-01-21T08:01:09.812Z,8.60
2023-01-21T08:02:09.972Z,6.60
2023-01-21T08:03:09.797Z,8.40
2023-01-21T08:04:09.899Z,5.40
2023-01-21T08:05:09.772Z,6.50
2023-01-21T08:06:09.771Z,10.80
2023-01-21T08:07:12.955Z,7.40
2023-01-21T08:08:09.748Z,9.30
2023-01-21T08:09:09.718Z,6.40
2023-01-21T08:10:09.723Z,8.30
2023-01-21T08:11:09.695Z,7.20
2023-01-21T08:12:09.716Z,9.10
2023-01-21T08:13:09.677Z,5.60
2023-01-21T08:14:09.672Z,8.20
2023-01-21T08:15:09.647Z,6.40
2023-01-21T08:16:09.743Z,8.00
2023-01-21T08:17:09.637Z,8.70
2023-01-21T08:18:09.620Z,7.30
2023-01-21T08:19:09.640Z,8.50
2023-01-21T08:20:09.624Z,7.00
2023-01-21T08:21:09.581Z,10.30
2023-01-21T08:22:09.586Z,8.10
2023-01-21T08:23:09.562Z,9.30
2023-01-21T08:24:09.580Z,8.10
2023-01-21T08:25:09.571Z,9.80
2023-01-21T08:26:09.547Z,9.40
2023-01-21T08:27:09.538Z,10.40
2023-01-21T08:28:09.527Z,7.90
2023-01-21T08:29:09.521Z,9.80
2023-01-21T08:30:09.529Z,10.20
2023-01-21T08:31:09.588Z,8.10
2023-01-21T08:32:09.481Z,11.50
2023-01-21T08:33:09.485Z,11.70
2023-01-21T08:34:09.463Z,9.30
2023-01-21T08:35:09.471Z,7.80
2023-01-21T08:36:09.462Z,9.00
2023-01-21T08:37:09.413Z,8.00
2023-01-21T08:38:09.394Z,8.30
2023-01-21T08:39:09.403Z,12.80
2023-01-21T08:40:09.395Z,9.20
2023-01-21T08:41:09.398Z,9.30
2023-01-21T08:42:09.355Z,10.70
2023-01-21T08:43:09.339Z,9.20
2023-01-21T08:44:09.330Z,8.50
2023-01-21T08:45:09.324Z,8.90
2023-01-21T08:46:09.361Z,10.70
2023-01-21T08:47:09.339Z,10.30
2023-01-21T08:48:09.290Z,10.50
2023-01-21T08:49:10.032Z,9.50
2023-01-21T08:50:09.262Z,8.90
2023-01-21T08:51:09.370Z,10.60
2023-01-21T08:52:09.248Z,11.30
2023-01-21T08:53:09.281Z,8.30
2023-01-21T08:54:09.229Z,6.40
2023-01-21T08:55:09.221Z,9.60
2023-01-21T08:56:09.225Z,9.10
2023-01-21T08:57:09.223Z,13.60
2023-01-21T08:58:09.216Z,9.00
2023-01-21T08:59:09.197Z,10.30
2023-01-21T09:00:09.164Z,10.80
2023-01-21T09:01:09.220Z,8.10
2023-01-21T09:02:09.146Z,8.20
2023-01-21T09:03:09.135Z,8.50
2023-01-21T09:04:09.132Z,9.80
2023-01-21T09:05:09.104Z,10.40
2023-01-21T09:06:09.089Z,7.40
2023-01-21T09:07:09.117Z,13.20
2023-01-21T09:08:09.081Z,9.30
2023-01-21T09:09:09.087Z,9.70
2023-01-21T09:10:09.080Z,7.90
2023-01-21T09:11:09.045Z,10.10
2023-01-21T09:12:09.024Z,8.20
2023-01-21T09:13:09.030Z,11.80
2023-01-21T09:14:09.019Z,8.80
2023-01-21T09:15:08.991Z,9.10
2023-01-21T09:16:09.002Z,10.40
2023-01-21T09:17:08.978Z,8.30
2023-01-21T09:18:08.977Z,10.20
2023-01-21T09:19:08.947Z,10.20
2023-01-21T09:20:08.943Z,10.50
2023-01-21T09:21:08.953Z,10.30
2023-01-21T09:22:09.027Z,10.00
2023-01-21T09:23:09.027Z,18.00
2023-01-21T09:24:08.902Z,19.00
2023-01-21T09:25:08.879Z,9.40
2023-01-21T09:26:09.034Z,8.60
2023-01-21T09:27:08.858Z,8.10
2023-01-21T09:28:08.879Z,7.80
2023-01-21T09:29:08.834Z,10.10
2023-01-21T09:30:08.826Z,6.80
2023-01-21T09:31:08.857Z,7.50
2023-01-21T09:32:08.803Z,8.20
2023-01-21T09:33:08.824Z,6.60
2023-01-21T09:34:08.773Z,7.30
2023-01-21T09:35:08.779Z,9.90
2023-01-21T09:36:08.759Z,6.90
2023-01-21T09:37:08.747Z,8.70
2023-01-21T09:38:08.759Z,9.30
2023-01-21T09:39:08.745Z,6.80
2023-01-21T09:40:08.727Z,6.90
2023-01-21T09:41:08.703Z,6.80
2023-01-21T09:42:08.682Z,9.10
2023-01-21T09:43:08.690Z,7.80
2023-01-21T09:44:08.702Z,7.20
2023-01-21T09:45:08.665Z,6.40
2023-01-21T09:46:08.761Z,6.50
2023-01-21T09:47:08.641Z,8.30
2023-01-21T09:48:08.639Z,8.90
2023-01-21T09:49:08.642Z,8.50
2023-01-21T09:50:08.614Z,7.30
2023-01-21T09:51:08.644Z,7.40
2023-01-21T09:52:08.573Z,8.30
2023-01-21T09:53:08.572Z,8.20
2023-01-21T09:54:08.579Z,8.80
2023-01-21T09:55:08.568Z,8.20
2023-01-21T09:56:08.534Z,4.90
2023-01-21T09:57:08.526Z,7.30
2023-01-21T09:58:08.508Z,5.90
2023-01-21T09:59:08.529Z,7.10
2023-01-21T10:00:08.552Z,6.40
2023-01-21T10:01:08.554Z,6.30
2023-01-21T10:02:08.510Z,8.30
2023-01-21T10:03:08.485Z,5.90
2023-01-21T10:04:08.478Z,7.60
2023-01-21T10:05:08.490Z,6.80
2023-01-21T10:06:08.511Z,6.30
2023-01-21T10:07:08.447Z,26.80
2023-01-21T10:08:08.404Z,10.40
2023-01-21T10:09:08.417Z,9.80
2023-01-21T10:10:08.404Z,8.00
2023-01-21T10:11:08.397Z,6.60
2023-01-21T10:12:08.390Z,7.40
2023-01-21T10:13:08.354Z,5.00
2023-01-21T10:14:08.336Z,5.50
2023-01-21T10:15:08.354Z,7.50
2023-01-21T10:16:08.318Z,7.10
2023-01-21T10:17:08.331Z,7.10
2023-01-21T10:18:08.323Z,7.20
2023-01-21T10:19:09.065Z,7.90
2023-01-21T10:20:08.329Z,6.30
2023-01-21T10:21:08.307Z,7.20
2023-01-21T10:22:08.249Z,8.30
2023-01-21T10:23:08.242Z,6.50
2023-01-21T10:24:08.244Z,8.40
2023-01-21T10:25:08.222Z,6.10
2023-01-21T10:26:08.211Z,6.60
2023-01-21T10:27:08.277Z,6.40
2023-01-21T10:28:08.298Z,6.80
2023-01-21T10:29:08.175Z,6.10
2023-01-21T10:30:08.181Z,8.40
2023-01-21T10:31:08.324Z,5.50
2023-01-21T10:32:08.135Z,6.60
2023-01-21T10:33:08.134Z,8.10
2023-01-21T10:34:08.119Z,5.70
2023-01-21T10:35:08.137Z,5.90
2023-01-21T10:36:08.088Z,6.40
2023-01-21T10:37:08.144Z,6.70
2023-01-21T10:38:08.152Z,6.90
2023-01-21T10:39:08.077Z,6.50
2023-01-21T10:40:08.074Z,6.00
2023-01-21T10:41:08.052Z,6.00
2023-01-21T10:42:08.040Z,6.60
2023-01-21T10:43:08.040Z,6.10
2023-01-21T10:44:08.034Z,7.90
2023-01-21T10:45:08.164Z,8.70
2023-01-21T10:46:08.001Z,7.70
2023-01-21T10:47:08.045Z,6.20
2023-01-21T10:48:07.958Z,6.90
2023-01-21T10:49:07.971Z,5.70
2023-01-21T10:50:07.948Z,6.40
2023-01-21T10:51:08.154Z,7.50
2023-01-21T10:52:07.928Z,7.70
2023-01-21T10:53:08.010Z,5.90
2023-01-21T10:54:07.920Z,5.40
2023-01-21T10:55:07.895Z,5.60
2023-01-21T10:56:07.890Z,5.40
2023-01-21T10:57:07.870Z,7.90
2023-01-21T10:58:07.843Z,5.90
2023-01-21T10:59:08.001Z,6.50
2023-01-21T11:00:07.885Z,6.40
2023-01-21T11:01:07.863Z,7.60
2023-01-21T11:02:07.818Z,8.50
2023-01-21T11:03:07.826Z,6.00
2023-01-21T11:04:07.805Z,4.90
2023-01-21T11:05:07.809Z,5.60
2023-01-21T11:06:07.766Z,6.50
2023-01-21T11:07:07.766Z,6.50
2023-01-21T11:08:07.765Z,6.30
2023-01-21T11:09:07.833Z,7.20
2023-01-21T11:10:07.722Z,6.80
2023-01-21T11:11:07.725Z,6.60
2023-01-21T11:12:07.698Z,6.60
2023-01-21T11:13:07.713Z,7.50
2023-01-21T11:14:07.671Z,6.40
2023-01-21T11:15:07.709Z,7.10
2023-01-21T11:16:07.675Z,8.30
2023-01-21T11:17:07.662Z,6.60
2023-01-21T11:18:07.632Z,6.60
2023-01-21T11:19:07.633Z,4.50
2023-01-21T11:20:07.623Z,5.50
2023-01-21T11:21:07.617Z,7.00
2023-01-21T11:22:07.588Z,6.50
2023-01-21T11:23:07.579Z,7.80
2023-01-21T11:24:07.559Z,7.30
2023-01-21T11:25:07.586Z,8.40
2023-01-21T11:26:10.192Z,7.00
2023-01-21T11:27:07.574Z,7.20
2023-01-21T11:28:07.545Z,9.10
2023-01-21T11:29:07.519Z,7.40
2023-01-21T11:30:25.917Z,9.50
2023-01-21T11:31:08.658Z,9.60
2023-01-21T11:32:07.638Z,13.10
2023-01-21T11:33:07.466Z,11.70
2023-01-21T11:34:07.460Z,10.60
2023-01-21T11:35:10.288Z,13.60
2023-01-21T11:36:07.445Z,11.80
2023-01-21T11:37:07.440Z,9.50
2023-01-21T11:38:07.410Z,9.90
2023-01-21T11:39:07.422Z,11.40
2023-01-21T11:40:07.389Z,10.90
2023-01-21T11:41:09.353Z,11.40
2023-01-21T11:42:07.373Z,43.70
2023-01-21T11:43:07.367Z,10.00
2023-01-21T11:44:07.355Z,9.90
2023-01-21T11:45:07.336Z,9.20
2023-01-21T11:46:07.374Z,10.30
2023-01-21T11:47:07.322Z,10.30
2023-01-21T11:48:07.333Z,14.20
2023-01-21T11:49:07.309Z,10.70
2023-01-21T11:50:07.281Z,10.50
2023-01-21T11:51:07.330Z,12.50
2023-01-21T11:52:07.303Z,10.90
2023-01-21T11:53:07.258Z,11.80
2023-01-21T11:54:07.260Z,13.40
2023-01-21T11:55:07.237Z,10.80
2023-01-21T11:56:07.214Z,13.40
2023-01-21T11:57:07.210Z,11.40
2023-01-21T11:58:07.213Z,10.90
2023-01-21T11:59:07.176Z,12.00
2023-01-21T12:00:07.170Z,12.20
2023-01-21T12:01:07.155Z,11.30
2023-01-21T12:02:07.155Z,10.30
2023-01-21T12:03:07.188Z,9.90
2023-01-21T12:04:07.198Z,10.30
2023-01-21T12:05:07.111Z,12.50
2023-01-21T12:06:07.101Z,12.20
2023-01-21T12:07:07.109Z,11.90
2023-01-21T12:08:07.099Z,14.10
2023-01-21T12:09:07.103Z,12.00
2023-01-21T12:10:07.085Z,10.80
2023-01-21T12:11:07.049Z,13.90
2023-01-21T12:12:07.065Z,10.90
2023-01-21T12:13:07.026Z,13.20
2023-01-21T12:14:07.045Z,11.70
2023-01-21T12:15:06.999Z,11.90
2023-01-21T12:16:07.144Z,12.70
2023-01-21T12:17:06.977Z,11.20
2023-01-21T12:18:06.975Z,11.30
2023-01-21T12:19:07.013Z,9.40
2023-01-21T12:20:06.958Z,12.90
2023-01-21T12:21:06.946Z,10.40
2023-01-21T12:22:06.927Z,14.40
2023-01-21T12:23:06.920Z,14.00
2023-01-21T12:24:06.950Z,13.50
2023-01-21T12:25:06.886Z,11.10
2023-01-21T12:26:06.880Z,12.20
2023-01-21T12:27:06.864Z,12.00
2023-01-21T12:28:06.887Z,9.00
2023-01-21T12:30:06.868Z,12.80
2023-01-21T12:31:06.937Z,11.10
2023-01-21T12:32:06.818Z,9.50
2023-01-21T12:33:06.802Z,10.20
2023-01-21T12:34:06.818Z,9.10
2023-01-21T12:35:06.817Z,10.00
2023-01-21T12:36:06.790Z,10.30
2023-01-21T12:37:06.764Z,9.50
2023-01-21T12:38:06.751Z,9.50
2023-01-21T12:39:06.749Z,12.70
2023-01-21T12:40:06.753Z,14.40
2023-01-21T12:41:06.711Z,10.20
2023-01-21T12:42:06.719Z,9.10
2023-01-21T12:43:06.698Z,13.60
2023-01-21T12:44:06.701Z,10.80
2023-01-21T12:45:06.712Z,10.30
2023-01-21T12:46:06.673Z,11.00
2023-01-21T12:47:06.651Z,9.30
2023-01-21T12:48:06.638Z,11.70
2023-01-21T12:49:06.657Z,14.20
2023-01-21T12:50:06.632Z,15.70
2023-01-21T12:51:06.712Z,15.80
2023-01-21T12:52:06.598Z,10.60
2023-01-21T12:53:06.624Z,20.30
2023-01-21T12:54:06.573Z,12.50
2023-01-21T12:55:06.559Z,12.50
2023-01-21T12:56:06.577Z,16.90
2023-01-21T12:57:06.543Z,14.10
2023-01-21T12:58:06.531Z,13.00
2023-01-21T12:59:06.519Z,11.80
2023-01-21T13:00:06.546Z,12.60
2023-01-21T13:01:06.541Z,9.40
2023-01-21T13:02:06.631Z,12.00